createdAt,value
2018-02-19T00:00:22.007Z,16.27
2018-02-19T00:02:47.988Z,15.17
2018-02-19T00:05:13.960Z,15.50
2018-02-19T00:07:39.974Z,15.70
2018-02-19T00:10:06.063Z,14.97
2018-02-19T00:12:32.868Z,14.70
2018-02-19T00:14:58.840Z,14.90
2018-02-19T00:17:24.817Z,15.87
2018-02-19T00:19:50.788Z,14.80
2018-02-19T00:22:16.779Z,14.73
2018-02-19T00:24:42.758Z,13.93
2018-02-19T00:27:08.742Z,13.47
2018-02-19T00:29:34.798Z,14.97
2018-02-19T00:32:00.782Z,13.93
2018-02-19T00:34:26.765Z,12.87
2018-02-19T00:36:52.743Z,14.30
2018-02-19T00:39:18.729Z,13.13
2018-02-19T00:41:44.683Z,11.77
2018-02-19T00:44:10.709Z,12.43
2018-02-19T00:46:36.732Z,12.90
2018-02-19T00:49:02.773Z,11.67
2018-02-19T00:51:28.746Z,12.63
2018-02-19T00:53:54.732Z,13.10
2018-02-19T00:56:21.436Z,12.70
2018-02-19T00:58:47.421Z,12.63
2018-02-19T01:01:14.152Z,12.43
2018-02-19T01:03:40.204Z,13.87
2018-02-19T01:06:06.962Z,12.77
2018-02-19T01:08:33.866Z,12.63
2018-02-19T01:10:59.833Z,10.63
2018-02-19T01:13:25.806Z,11.87
2018-02-19T01:15:58.852Z,11.00
2018-02-19T01:18:24.841Z,13.33
2018-02-19T01:20:50.810Z,11.20
2018-02-19T01:23:16.782Z,11.03
2018-02-19T01:25:43.523Z,12.33
2018-02-19T01:28:09.548Z,13.07
2018-02-19T01:30:35.631Z,12.53
2018-02-19T01:33:01.632Z,13.00
2018-02-19T01:35:27.615Z,11.43
2018-02-19T01:37:53.602Z,12.53
2018-02-19T01:40:19.569Z,12.33
2018-02-19T01:42:46.300Z,10.77
2018-02-19T01:45:12.272Z,11.47
2018-02-19T01:47:38.282Z,11.93
2018-02-19T01:50:14.096Z,11.63
2018-02-19T01:52:40.126Z,12.13
2018-02-19T01:55:06.168Z,12.07
2018-02-19T01:57:32.197Z,12.70
2018-02-19T01:59:58.204Z,11.37
2018-02-19T02:02:24.927Z,12.77
2018-02-19T02:04:50.916Z,11.33
2018-02-19T02:07:16.893Z,12.63
2018-02-19T02:09:43.603Z,11.90
2018-02-19T02:12:09.620Z,12.57
2018-02-19T02:14:35.756Z,12.83
2018-02-19T02:17:02.548Z,11.37
2018-02-19T02:19:28.542Z,11.87
2018-02-19T02:21:55.255Z,12.40
2018-02-19T02:24:21.264Z,12.67
2018-02-19T02:26:47.263Z,12.40
2018-02-19T02:29:14.008Z,11.43
2018-02-19T02:31:40.746Z,12.30
2018-02-19T02:34:06.750Z,11.73
2018-02-19T02:36:32.774Z,11.90
2018-02-19T02:38:58.750Z,12.10
2018-02-19T02:41:24.709Z,12.53
2018-02-19T02:43:51.447Z,11.70
2018-02-19T02:46:18.177Z,12.07
2018-02-19T02:48:44.157Z,12.37
2018-02-19T02:51:10.883Z,12.77
2018-02-19T02:53:36.899Z,11.20
2018-02-19T02:56:02.922Z,11.33
2018-02-19T02:58:28.914Z,12.17
2018-02-19T03:00:55.662Z,11.30
2018-02-19T03:03:22.384Z,10.67
2018-02-19T03:05:48.382Z,11.40
2018-02-19T03:08:14.361Z,10.43
2018-02-19T03:10:40.325Z,10.50
2018-02-19T03:13:07.122Z,10.37
2018-02-19T03:15:33.168Z,11.03
2018-02-19T03:17:59.153Z,9.77
2018-02-19T03:20:25.859Z,9.50
2018-02-19T03:22:51.860Z,10.43
2018-02-19T03:25:17.866Z,10.87
2018-02-19T03:27:43.821Z,10.53
2018-02-19T03:30:09.886Z,11.07
2018-02-19T03:32:35.902Z,10.03
2018-02-19T03:35:02.360Z,10.43
2018-02-19T03:37:28.328Z,10.60
2018-02-19T03:39:54.324Z,12.07
2018-02-19T03:42:20.284Z,9.90
2018-02-19T03:44:46.300Z,10.27
2018-02-19T03:47:12.278Z,10.80
2018-02-19T03:49:38.282Z,10.97
2018-02-19T03:52:04.273Z,10.53
2018-02-19T03:54:30.990Z,9.97
2018-02-19T03:56:56.965Z,10.37
2018-02-19T03:59:23.709Z,10.93
2018-02-19T04:01:50.420Z,11.20
2018-02-19T04:04:16.393Z,11.13
2018-02-19T04:06:42.420Z,10.23
2018-02-19T04:09:08.432Z,10.40
2018-02-19T04:11:34.482Z,10.07
2018-02-19T04:14:00.494Z,10.60
2018-02-19T04:16:26.509Z,8.93
2018-02-19T04:18:52.500Z,10.20
2018-02-19T04:21:18.481Z,10.40
2018-02-19T04:23:44.454Z,10.13
2018-02-19T04:26:10.513Z,10.33
2018-02-19T04:28:36.582Z,11.03
2018-02-19T04:31:02.610Z,11.63
2018-02-19T04:33:28.624Z,11.40
2018-02-19T04:35:54.608Z,10.90
2018-02-19T04:38:20.597Z,10.50
2018-02-19T04:40:47.332Z,10.33
2018-02-19T04:43:13.365Z,11.50
2018-02-19T04:48:46.944Z,12.30
2018-02-19T04:51:13.680Z,10.93
2018-02-19T04:53:39.737Z,11.17
2018-02-19T04:56:06.478Z,12.23
2018-02-19T04:58:32.517Z,12.80
2018-02-19T05:00:58.496Z,12.63
2018-02-19T05:03:24.485Z,11.00
2018-02-19T05:05:50.457Z,11.17
2018-02-19T05:08:16.436Z,11.57
2018-02-19T05:10:42.419Z,12.07
2018-02-19T05:13:09.149Z,11.17
2018-02-19T05:15:35.210Z,11.40
2018-02-19T05:18:01.221Z,11.47
2018-02-19T05:20:27.213Z,12.00
2018-02-19T05:22:53.209Z,10.90
2018-02-19T05:25:19.170Z,12.47
2018-02-19T05:27:45.145Z,11.60
2018-02-19T05:30:11.165Z,12.00
2018-02-19T05:32:37.199Z,11.33
2018-02-19T05:35:03.279Z,11.77
2018-02-19T05:37:30.009Z,10.70
2018-02-19T05:39:55.985Z,12.73
2018-02-19T05:42:22.004Z,11.90
2018-02-19T05:44:48.724Z,12.80
2018-02-19T05:47:14.702Z,11.73
2018-02-19T05:49:41.474Z,11.90
2018-02-19T05:52:07.515Z,13.37
2018-02-19T05:54:33.520Z,11.83
2018-02-19T05:57:00.241Z,13.17
2018-02-19T05:59:26.227Z,12.10
2018-02-19T06:01:52.208Z,12.57
2018-02-19T06:04:18.215Z,13.37
2018-02-19T06:06:44.198Z,13.80
2018-02-19T06:09:10.221Z,11.40
2018-02-19T06:11:36.233Z,12.67
2018-02-19T06:14:02.242Z,13.80
2018-02-19T06:16:28.225Z,11.77
2018-02-19T06:18:54.208Z,11.97
2018-02-19T06:21:20.205Z,12.53
2018-02-19T06:23:46.194Z,12.07
2018-02-19T06:26:12.189Z,12.93
2018-02-19T06:28:38.201Z,13.40
2018-02-19T06:31:04.282Z,13.50
2018-02-19T06:33:31.058Z,12.03
2018-02-19T06:35:57.095Z,12.50
2018-02-19T06:38:23.808Z,13.77
2018-02-19T06:40:49.797Z,13.73
2018-02-19T06:43:15.866Z,13.10
2018-02-19T06:45:43.341Z,11.80
2018-02-19T06:48:09.411Z,11.77
2018-02-19T06:50:35.396Z,12.63
2018-02-19T06:53:01.403Z,12.63
2018-02-19T06:55:27.416Z,11.90
2018-02-19T06:57:53.413Z,12.60
2018-02-19T07:00:19.388Z,12.03
2018-02-19T07:02:45.361Z,13.07
2018-02-19T07:05:11.321Z,12.60
2018-02-19T07:07:37.317Z,12.70
2018-02-19T07:10:03.296Z,12.30
2018-02-19T07:12:29.339Z,11.87
2018-02-19T07:14:56.066Z,13.60
2018-02-19T07:17:22.034Z,12.93
2018-02-19T07:19:48.749Z,14.20
2018-02-19T07:22:14.730Z,11.57
2018-02-19T07:24:40.696Z,13.20
2018-02-19T07:27:06.662Z,11.00
2018-02-19T07:29:32.633Z,11.70
2018-02-19T07:31:58.668Z,10.97
2018-02-19T07:34:24.640Z,10.87
2018-02-19T07:36:50.648Z,12.53
2018-02-19T07:39:16.624Z,11.37
2018-02-19T07:41:42.593Z,11.73
2018-02-19T07:44:09.301Z,11.37
2018-02-19T07:46:35.294Z,11.80
2018-02-19T07:49:01.295Z,11.17
2018-02-19T07:51:27.284Z,12.47
2018-02-19T07:53:53.360Z,11.90
2018-02-19T07:56:19.342Z,12.47
2018-02-19T07:58:46.066Z,12.40
2018-02-19T08:01:12.045Z,11.53
2018-02-19T08:03:38.037Z,11.70
2018-02-19T08:06:04.035Z,12.00
2018-02-19T08:08:29.992Z,10.80
2018-02-19T08:10:55.978Z,12.30
2018-02-19T08:13:21.943Z,11.50
2018-02-19T08:15:47.920Z,11.87
2018-02-19T08:18:13.928Z,12.87
2018-02-19T08:20:39.860Z,11.90
2018-02-19T08:23:05.808Z,11.33
2018-02-19T08:25:32.542Z,11.90
2018-02-19T08:27:58.549Z,11.40
2018-02-19T08:30:24.524Z,10.43
2018-02-19T08:32:50.482Z,11.93
2018-02-19T08:35:17.210Z,10.20
2018-02-19T08:37:43.165Z,9.60
2018-02-19T08:40:09.149Z,12.00
2018-02-19T08:42:35.115Z,11.83
2018-02-19T08:45:01.107Z,11.87
2018-02-19T08:47:27.132Z,10.20
2018-02-19T08:49:53.868Z,11.97
2018-02-19T08:52:20.574Z,11.57
2018-02-19T08:54:46.553Z,11.67
2018-02-19T08:57:12.511Z,12.83
2018-02-19T08:59:39.221Z,10.50
2018-02-19T09:02:05.191Z,11.53
2018-02-19T09:04:31.925Z,10.73
2018-02-19T09:06:57.902Z,11.33
2018-02-19T09:09:24.069Z,11.80
2018-02-19T09:11:50.037Z,11.27
2018-02-19T09:14:15.997Z,11.07
2018-02-19T09:16:42.009Z,10.33
2018-02-19T09:19:08.720Z,11.40
2018-02-19T09:21:34.688Z,11.73
2018-02-19T09:24:00.673Z,11.90
2018-02-19T09:26:26.691Z,12.77
2018-02-19T09:28:53.424Z,12.80
2018-02-19T09:31:20.155Z,12.83
2018-02-19T09:33:46.114Z,13.10
2018-02-19T09:36:12.879Z,12.63
2018-02-19T09:38:38.816Z,10.53
2018-02-19T09:41:05.538Z,9.17
2018-02-19T09:43:31.493Z,10.03
2018-02-19T09:45:58.228Z,11.87
2018-02-19T09:48:24.271Z,12.00
2018-02-19T09:50:50.245Z,11.83
2018-02-19T09:53:16.232Z,10.57
2018-02-19T09:55:42.205Z,12.23
2018-02-19T09:58:08.173Z,10.70
2018-02-19T10:00:34.161Z,8.63
2018-02-19T10:03:00.868Z,10.30
2018-02-19T10:05:26.860Z,9.37
2018-02-19T10:07:53.599Z,10.07
2018-02-19T10:10:20.379Z,10.23
2018-02-19T10:12:46.297Z,9.30
2018-02-19T10:15:13.038Z,10.27
2018-02-19T10:17:39.741Z,9.90
2018-02-19T10:20:05.714Z,10.40
2018-02-19T10:22:31.801Z,10.57
2018-02-19T10:24:57.799Z,10.33
2018-02-19T10:27:24.536Z,10.67
2018-02-19T10:29:51.272Z,11.13
2018-02-19T10:32:17.269Z,11.13
2018-02-19T10:34:43.256Z,9.83
2018-02-19T10:37:09.232Z,10.37
2018-02-19T10:39:35.223Z,11.40
2018-02-19T10:42:01.168Z,10.63
2018-02-19T10:44:27.166Z,10.43
2018-02-19T10:46:54.140Z,9.93
2018-02-19T10:49:20.112Z,10.13
2018-02-19T10:51:46.826Z,9.37
2018-02-19T10:56:55.258Z,10.43
2018-02-19T10:59:21.229Z,9.97
2018-02-19T11:01:47.213Z,9.47
2018-02-19T11:04:15.153Z,11.73
2018-02-19T11:06:41.157Z,11.53
2018-02-19T11:09:07.109Z,11.33
2018-02-19T11:11:33.103Z,11.97
2018-02-19T11:13:59.105Z,11.87
2018-02-19T11:16:25.122Z,11.23
2018-02-19T11:18:51.109Z,12.63
2018-02-19T11:21:17.081Z,11.57
2018-02-19T11:23:43.056Z,12.70
2018-02-19T11:26:09.026Z,12.27
2018-02-19T11:28:34.998Z,12.20
2018-02-19T11:31:00.999Z,11.60
2018-02-19T11:33:26.977Z,12.47
2018-02-19T11:35:52.976Z,12.77
2018-02-19T11:38:19.689Z,12.83
2018-02-19T11:40:46.405Z,11.97
2018-02-19T11:43:12.374Z,10.60
2018-02-19T11:45:39.107Z,9.47
2018-02-19T11:48:05.089Z,11.07
2018-02-19T11:50:31.834Z,11.27
2018-02-19T11:52:58.567Z,11.87
2018-02-19T11:55:24.557Z,10.57
2018-02-19T11:57:50.531Z,11.87
2018-02-19T12:00:16.509Z,11.80
2018-02-19T12:02:42.501Z,11.27
2018-02-19T12:05:08.490Z,10.73
2018-02-19T12:07:34.484Z,11.73
2018-02-19T12:10:00.462Z,10.27
2018-02-19T12:12:26.473Z,10.87
2018-02-19T12:14:52.500Z,8.97
2018-02-19T12:17:19.231Z,10.63
2018-02-19T12:19:45.350Z,10.63
2018-02-19T12:22:11.361Z,10.57
2018-02-19T12:24:37.372Z,11.87
2018-02-19T12:27:04.089Z,10.90
2018-02-19T12:29:30.053Z,12.43
2018-02-19T12:31:56.798Z,11.57
2018-02-19T12:34:23.867Z,11.70
2018-02-19T12:36:49.893Z,11.33
2018-02-19T12:39:15.867Z,12.30
2018-02-19T12:41:43.429Z,11.33
2018-02-19T12:44:09.527Z,13.23
2018-02-19T12:46:37.007Z,12.10
2018-02-19T12:49:03.813Z,11.30
2018-02-19T12:51:30.194Z,12.50
2018-02-19T12:53:56.985Z,10.60
2018-02-19T12:56:22.957Z,10.90
2018-02-19T12:58:48.929Z,11.63
2018-02-19T13:01:14.923Z,11.63
2018-02-19T13:03:40.894Z,11.73
2018-02-19T13:06:07.693Z,11.10
2018-02-19T13:08:33.657Z,10.50
2018-02-19T13:10:59.693Z,11.60
2018-02-19T13:13:25.722Z,13.70
2018-02-19T13:15:51.721Z,12.23
2018-02-19T13:18:17.702Z,12.23
2018-02-19T13:20:43.684Z,11.53
2018-02-19T13:23:10.401Z,12.00
2018-02-19T13:25:36.375Z,11.43
2018-02-19T13:28:03.694Z,12.30
2018-02-19T13:30:29.819Z,12.33
2018-02-19T13:32:55.858Z,12.03
2018-02-19T13:35:21.859Z,12.63
2018-02-19T13:37:48.575Z,11.67
2018-02-19T13:40:14.567Z,11.60
2018-02-19T13:42:40.573Z,10.70
2018-02-19T13:45:07.317Z,11.63
2018-02-19T13:47:34.050Z,10.80
2018-02-19T13:50:00.035Z,12.13
2018-02-19T13:52:33.133Z,12.77
2018-02-19T13:54:59.152Z,12.53
2018-02-19T13:57:26.014Z,12.03
2018-02-19T13:59:52.732Z,11.20
2018-02-19T14:02:18.713Z,12.67
2018-02-19T14:04:44.673Z,13.27
2018-02-19T14:07:10.668Z,12.80
2018-02-19T14:09:37.379Z,11.57
2018-02-19T14:12:03.373Z,11.37
2018-02-19T14:14:29.354Z,10.47
2018-02-19T14:16:55.361Z,11.57
2018-02-19T14:19:21.401Z,11.30
2018-02-19T14:21:47.380Z,13.57
2018-02-19T14:24:13.361Z,10.77
2018-02-19T14:26:39.348Z,10.83
2018-02-19T14:29:05.321Z,10.57
2018-02-19T14:31:31.327Z,10.70
2018-02-19T14:33:57.383Z,11.53
2018-02-19T14:36:23.425Z,11.23
2018-02-19T14:38:50.138Z,10.57
2018-02-19T14:41:16.125Z,9.90
2018-02-19T14:43:42.089Z,10.97
2018-02-19T14:46:08.090Z,11.13
2018-02-19T14:48:34.045Z,10.97
2018-02-19T14:51:00.072Z,10.83
2018-02-19T14:53:26.290Z,11.23
2018-02-19T14:55:53.021Z,11.13
2018-02-19T14:58:19.005Z,10.43
2018-02-19T15:00:44.981Z,11.03
2018-02-19T15:03:10.949Z,9.70
2018-02-19T15:05:36.921Z,12.47
2018-02-19T15:08:02.992Z,11.57
2018-02-19T15:10:29.054Z,11.47
2018-02-19T15:12:55.854Z,11.87
2018-02-19T15:15:21.895Z,11.40
2018-02-19T15:17:47.805Z,12.90
2018-02-19T15:20:13.774Z,11.43
2018-02-19T15:22:39.747Z,12.50
2018-02-19T15:25:06.457Z,12.67
2018-02-19T15:27:32.485Z,12.70
2018-02-19T15:29:58.528Z,10.63
2018-02-19T15:32:31.450Z,10.47
2018-02-19T15:34:57.441Z,11.60
2018-02-19T15:37:23.439Z,10.73
2018-02-19T15:39:50.154Z,11.53
2018-02-19T15:42:16.128Z,13.20
2018-02-19T15:44:42.897Z,13.57
2018-02-19T15:47:09.605Z,12.13
2018-02-19T15:49:35.585Z,11.93
2018-02-19T15:52:02.337Z,11.33
2018-02-19T15:54:29.075Z,11.40
2018-02-19T15:56:55.149Z,11.73
2018-02-19T15:59:21.122Z,11.93
2018-02-19T16:01:47.128Z,12.67
2018-02-19T16:04:13.128Z,12.97
2018-02-19T16:06:46.780Z,12.93
2018-02-19T16:09:12.740Z,12.43
2018-02-19T16:11:38.753Z,12.10
2018-02-19T16:14:04.727Z,11.97
2018-02-19T16:16:32.238Z,12.53
2018-02-19T16:18:58.787Z,11.97
2018-02-19T16:21:24.996Z,12.03
2018-02-19T16:23:51.937Z,13.00
2018-02-19T16:26:18.227Z,11.43
2018-02-19T16:28:44.437Z,12.13
2018-02-19T16:31:11.174Z,12.30
2018-02-19T16:33:37.165Z,11.07
2018-02-19T16:36:03.141Z,12.13
2018-02-19T16:38:29.121Z,11.80
2018-02-19T16:40:55.936Z,11.43
2018-02-19T16:43:21.914Z,11.60
2018-02-19T16:45:47.900Z,12.30
2018-02-19T16:48:13.885Z,11.53
2018-02-19T16:50:46.840Z,12.63
2018-02-19T16:53:12.873Z,11.83
2018-02-19T16:55:38.858Z,11.70
2018-02-19T16:58:05.584Z,11.33
2018-02-19T17:00:31.613Z,12.10
2018-02-19T17:02:57.693Z,11.83
2018-02-19T17:05:24.085Z,11.87
2018-02-19T17:07:50.444Z,12.53
2018-02-19T17:10:16.409Z,12.33
2018-02-19T17:12:42.630Z,12.03
2018-02-19T17:15:09.453Z,12.80
2018-02-19T17:17:35.441Z,12.53
2018-02-19T17:20:02.201Z,12.27
2018-02-19T17:22:28.254Z,12.83
2018-02-19T17:24:54.374Z,12.30
2018-02-19T17:27:20.361Z,12.37
2018-02-19T17:29:46.349Z,12.23
2018-02-19T17:32:12.366Z,13.07
2018-02-19T17:34:39.779Z,12.47
2018-02-19T17:37:05.893Z,12.87
2018-02-19T17:39:33.169Z,12.67
2018-02-19T17:41:59.222Z,13.00
2018-02-19T17:44:25.737Z,12.17
2018-02-19T17:46:52.380Z,12.57
2018-02-19T17:49:18.505Z,12.40
2018-02-19T17:51:45.441Z,11.13
2018-02-19T17:54:11.433Z,12.87
2018-02-19T17:56:37.462Z,12.73
2018-02-19T17:59:03.425Z,12.50
2018-02-19T18:01:29.453Z,12.70
2018-02-19T18:03:55.482Z,11.83
2018-02-19T18:06:24.455Z,11.40
2018-02-19T18:08:51.205Z,12.10
2018-02-19T18:11:17.964Z,11.83
2018-02-19T18:13:44.684Z,11.67
2018-02-19T18:16:10.798Z,12.47
2018-02-19T18:18:36.793Z,13.43
2018-02-19T18:21:03.516Z,12.37
2018-02-19T18:23:29.645Z,12.67
2018-02-19T18:25:55.636Z,12.30
2018-02-19T18:28:21.631Z,12.83
2018-02-19T18:30:47.633Z,11.97
2018-02-19T18:33:13.754Z,11.93
2018-02-19T18:35:39.737Z,13.00
2018-02-19T18:38:07.216Z,12.40
2018-02-19T18:40:33.329Z,11.77
2018-02-19T18:42:59.502Z,12.03
2018-02-19T18:45:25.486Z,12.53
2018-02-19T18:47:51.476Z,13.40
2018-02-19T18:50:17.440Z,12.67
2018-02-19T18:52:43.410Z,12.33
2018-02-19T18:55:09.402Z,13.33
2018-02-19T18:57:36.181Z,12.07
2018-02-19T19:00:02.208Z,12.57
2018-02-19T19:02:28.206Z,11.63
2018-02-19T19:04:54.238Z,12.30
2018-02-19T19:07:32.785Z,13.00
2018-02-19T19:10:12.079Z,13.03
2018-02-19T19:12:38.080Z,12.60
2018-02-19T19:15:04.825Z,11.47
2018-02-19T19:17:31.545Z,11.33
2018-02-19T19:19:57.853Z,9.97
2018-02-19T19:22:23.902Z,10.77
2018-02-19T19:24:49.888Z,12.53
2018-02-19T19:27:15.862Z,10.43
2018-02-19T19:29:41.813Z,11.37
2018-02-19T19:32:07.972Z,11.57
2018-02-19T19:34:33.964Z,12.50
2018-02-19T19:36:59.961Z,11.37
2018-02-19T19:39:26.002Z,11.33
2018-02-19T19:41:51.993Z,10.20
2018-02-19T19:44:17.969Z,11.17
2018-02-19T19:46:43.930Z,10.00
2018-02-19T19:49:10.656Z,12.27
2018-02-19T19:51:36.715Z,12.20
2018-02-19T19:54:03.433Z,11.67
2018-02-19T19:56:29.540Z,11.30
2018-02-19T19:58:55.529Z,11.37
2018-02-19T20:01:21.516Z,12.03
2018-02-19T20:03:47.517Z,11.67
2018-02-19T20:06:14.257Z,12.13
2018-02-19T20:08:41.070Z,12.40
2018-02-19T20:11:07.022Z,10.63
2018-02-19T20:13:33.000Z,11.77
2018-02-19T20:15:59.704Z,11.83
2018-02-19T20:18:25.976Z,12.47
2018-02-19T20:20:52.686Z,12.17
2018-02-19T20:23:18.806Z,11.47
2018-02-19T20:25:44.801Z,12.40
2018-02-19T20:28:11.516Z,13.10
2018-02-19T20:30:37.494Z,11.70
2018-02-19T20:33:04.209Z,12.73
2018-02-19T20:35:37.248Z,12.23
2018-02-19T20:38:04.076Z,12.13
2018-02-19T20:40:30.209Z,11.20
2018-02-19T20:42:56.200Z,11.93
2018-02-19T20:45:22.173Z,11.80
2018-02-19T20:47:48.173Z,11.43
2018-02-19T20:50:14.145Z,11.83
2018-02-19T20:52:40.147Z,12.67
2018-02-19T20:55:06.224Z,10.77
2018-02-19T20:57:32.228Z,11.33
2018-02-19T20:59:58.343Z,13.23
2018-02-19T21:02:25.093Z,12.17
2018-02-19T21:04:51.820Z,11.83
2018-02-19T21:07:17.990Z,12.27
2018-02-19T21:09:43.996Z,13.67
2018-02-19T21:12:09.968Z,12.83
2018-02-19T21:14:35.986Z,13.93
2018-02-19T21:17:02.713Z,12.00
2018-02-19T21:19:28.701Z,13.33
2018-02-19T21:21:54.712Z,12.83
2018-02-19T21:24:21.483Z,12.30
2018-02-19T21:26:47.456Z,11.17
2018-02-19T21:29:13.670Z,10.70
2018-02-19T21:34:33.446Z,11.50
2018-02-19T21:36:59.430Z,12.47
2018-02-19T21:39:25.760Z,11.27
2018-02-19T21:41:52.043Z,11.87
2018-02-19T21:44:18.056Z,11.17
2018-02-19T21:46:44.011Z,12.07
2018-02-19T21:49:10.062Z,11.23
2018-02-19T21:51:36.024Z,12.00
2018-02-19T21:54:02.020Z,11.03
2018-02-19T21:56:28.014Z,11.13
2018-02-19T21:58:54.075Z,10.87
2018-02-19T22:01:20.114Z,10.53
2018-02-19T22:03:46.099Z,11.57
2018-02-19T22:06:12.827Z,11.23
2018-02-19T22:08:38.806Z,12.00
2018-02-19T22:11:05.521Z,12.07
2018-02-19T22:13:31.488Z,11.23
2018-02-19T22:15:58.334Z,11.77
2018-02-19T22:18:25.072Z,11.73
2018-02-19T22:20:51.059Z,12.10
2018-02-19T22:23:17.056Z,12.20
2018-02-19T22:25:43.005Z,12.53
2018-02-19T22:28:09.728Z,11.90
2018-02-19T22:30:36.450Z,10.77
2018-02-19T22:33:02.420Z,10.67
2018-02-19T22:35:28.392Z,11.70
2018-02-19T22:37:54.416Z,12.07
2018-02-19T22:40:21.135Z,11.50
2018-02-19T22:42:47.141Z,10.63
2018-02-19T22:45:13.109Z,12.17
2018-02-19T22:47:39.081Z,11.43
2018-02-19T22:50:05.784Z,11.60
2018-02-19T22:52:31.767Z,10.47
2018-02-19T22:54:58.493Z,11.10
2018-02-19T22:57:24.509Z,10.80
2018-02-19T22:59:50.497Z,12.13
2018-02-19T23:02:16.461Z,10.07
2018-02-19T23:04:42.446Z,10.97
2018-02-19T23:07:09.176Z,11.67
2018-02-19T23:09:35.156Z,11.07
2018-02-19T23:12:01.851Z,11.00
2018-02-19T23:14:27.821Z,11.87
2018-02-19T23:16:53.786Z,11.13
2018-02-19T23:19:19.745Z,11.23
2018-02-19T23:21:46.432Z,10.57
2018-02-19T23:24:12.394Z,10.83
2018-02-19T23:26:39.087Z,11.40
2018-02-19T23:29:05.060Z,10.87
2018-02-19T23:31:31.024Z,10.77
2018-02-19T23:33:56.995Z,11.40
2018-02-19T23:36:22.970Z,11.13
2018-02-19T23:38:48.948Z,10.87
2018-02-19T23:41:14.917Z,10.63
2018-02-19T23:43:40.890Z,11.33
2018-02-19T23:46:07.597Z,10.90
2018-02-19T23:48:33.571Z,12.53
2018-02-19T23:51:00.291Z,10.63
2018-02-19T23:53:26.264Z,11.67
2018-02-19T23:55:52.234Z,11.73
2018-02-19T23:58:18.192Z,12.03
